Time;durP1;ratioP1;P1;durP2;ratioP2;P2;SDS_P1;SDS_P2;PMS_P1;PMS_P2;Temp;Humidity;BMP_temperature;BMP_pressure;BME280_temperature;BME280_humidity;BME280_pressure;Samples;Min_cycle;Max_cycle;Signal;HPM_P1;HPM_P2
2022/10/29 00:01:18;;;;;;;22.27;11.27;;;12.00;99.90;;;;;;5200363;28;20359;-75
2022/10/29 00:04:12;;;;;;;24.52;12.25;;;11.90;99.90;;;;;;5186116;28;20032;-75
2022/10/29 00:07:03;;;;;;;16.23;10.25;;;11.80;99.90;;;;;;5169550;28;20084;-75
2022/10/29 00:09:55;;;;;;;20.05;12.55;;;11.80;99.90;;;;;;5199596;28;20032;-74
2022/10/29 00:12:50;;;;;;;19.05;11.50;;;11.70;99.90;;;;;;5183448;28;20226;-75
2022/10/29 00:15:41;;;;;;;;;;;11.70;99.90;;;;;;5197267;28;20034;-75
2022/10/29 00:18:35;;;;;;;24.42;12.85;;;11.70;99.90;;;;;;5202801;28;19908;-75
2022/10/29 00:21:29;;;;;;;22.05;12.13;;;11.70;99.90;;;;;;5193076;28;20038;-74
2022/10/29 00:24:23;;;;;;;25.40;13.15;;;11.70;99.90;;;;;;5197003;28;20036;-75
2022/10/29 00:27:14;;;;;;;24.48;11.45;;;11.70;99.90;;;;;;5198174;28;20029;-74
2022/10/29 00:30:11;;;;;;;21.55;12.50;;;11.70;99.90;;;;;;5205122;28;20136;-75
2022/10/29 00:33:05;;;;;;;21.55;12.52;;;11.70;99.90;;;;;;5203885;28;20041;-75
2022/10/29 00:36:06;;;;;;;19.05;11.85;;;11.70;99.90;;;;;;5189878;28;20030;-74
2022/10/29 00:38:57;;;;;;;23.35;12.00;;;11.70;99.90;;;;;;5204722;28;20032;-74
2022/10/29 00:41:49;;;;;;;21.33;11.48;;;11.60;99.90;;;;;;5202482;28;20037;-74
2022/10/29 00:44:42;;;;;;;22.23;11.50;;;11.60;99.90;;;;;;5205231;28;20270;-74
2022/10/29 00:47:37;;;;;;;18.80;10.88;;;11.50;99.90;;;;;;5204363;28;20323;-74
2022/10/29 00:50:32;;;;;;;23.23;11.73;;;11.60;99.90;;;;;;5203811;28;20205;-73
2022/10/29 00:53:27;;;;;;;22.77;12.38;;;11.60;99.90;;;;;;5203869;28;20218;-74
2022/10/29 00:56:25;;;;;;;23.83;11.77;;;11.60;99.90;;;;;;5201622;28;20030;-74
2022/10/29 00:59:20;;;;;;;25.20;12.80;;;11.60;99.90;;;;;;5198498;28;20037;-75
2022/10/29 01:02:12;;;;;;;26.65;12.73;;;11.50;99.90;;;;;;5203133;28;20048;-74
2022/10/29 01:05:10;;;;;;;21.73;12.50;;;11.50;99.90;;;;;;5196591;28;20342;-74
2022/10/29 01:08:02;;;;;;;22.67;11.75;;;11.60;99.90;;;;;;5193043;28;20326;-73
2022/10/29 01:11:09;;;;;;;21.73;12.43;;;11.60;99.90;;;;;;5204009;28;20038;-74
2022/10/29 01:14:39;;;;;;;24.88;12.93;;;11.60;99.90;;;;;;5203718;28;20044;-73
2022/10/29 01:17:55;;;;;;;17.77;11.05;;;11.60;99.90;;;;;;5196551;28;20326;-75
2022/10/29 01:21:14;;;;;;;22.08;11.82;;;11.60;99.90;;;;;;5186196;28;20043;-74
2022/10/29 01:24:32;;;;;;;21.05;11.68;;;11.60;99.90;;;;;;5190398;28;20029;-73
2022/10/29 01:27:38;;;;;;;18.80;10.50;;;11.50;99.90;;;;;;5223361;28;20025;-72
2022/10/29 01:30:51;;;;;;;21.88;11.13;;;11.40;99.90;;;;;;5176260;28;20355;-73
2022/10/29 01:33:54;;;;;;;17.75;11.02;;;11.40;99.90;;;;;;5183192;28;20030;-73
2022/10/29 01:37:05;;;;;;;16.67;10.88;;;11.40;99.90;;;;;;5182490;28;20030;-74
2022/10/29 01:40:24;;;;;;;18.75;10.68;;;11.40;99.90;;;;;;5187653;28;20243;-73
2022/10/29 01:43:54;;;;;;;17.70;10.07;;;11.40;99.90;;;;;;5187911;28;20541;-74
2022/10/29 01:46:53;;;;;;;18.33;9.52;;;11.40;99.90;;;;;;5139963;28;20228;-73
2022/10/29 01:50:08;;;;;;;18.98;10.45;;;11.40;99.90;;;;;;5141632;28;20039;-73
2022/10/29 01:53:04;;;;;;;18.13;9.80;;;11.50;99.90;;;;;;5145462;28;20591;-72
2022/10/29 01:55:55;;;;;;;17.35;10.25;;;11.40;99.90;;;;;;5203956;28;20052;-74
2022/10/29 01:58:50;;;;;;;20.48;10.95;;;11.50;99.90;;;;;;5201130;28;20307;-74
2022/10/29 02:02:14;;;;;;;16.73;9.93;;;11.50;99.90;;;;;;5184456;28;20049;-74
2022/10/29 02:05:46;;;;;;;15.52;9.52;;;11.40;99.90;;;;;;5184359;28;20058;-73
2022/10/29 02:09:02;;;;;;;18.23;9.82;;;11.40;99.90;;;;;;5196852;28;20049;-74
2022/10/29 02:12:03;;;;;;;16.42;8.85;;;11.40;99.90;;;;;;5201995;28;20226;-76
2022/10/29 02:15:09;;;;;;;17.17;10.45;;;11.40;99.90;;;;;;5173597;28;20021;-73
2022/10/29 02:18:04;;;;;;;16.02;9.82;;;11.30;99.90;;;;;;5202162;28;20029;-75
2022/10/29 02:20:55;;;;;;;18.15;10.75;;;11.30;99.90;;;;;;5182339;28;20144;-74
2022/10/29 02:23:49;;;;;;;18.15;10.52;;;11.30;99.90;;;;;;5186954;28;20028;-75
2022/10/29 02:26:44;;;;;;;22.13;10.85;;;11.30;99.90;;;;;;5200827;28;20243;-74
2022/10/29 02:29:38;;;;;;;19.63;9.80;;;11.30;99.90;;;;;;5200357;28;20356;-74
2022/10/29 02:32:31;;;;;;;19.50;10.90;;;11.30;99.90;;;;;;5198353;28;20031;-74
2022/10/29 02:35:22;;;;;;;22.02;11.25;;;11.30;99.90;;;;;;5198538;28;20210;-74
2022/10/29 02:38:14;;;;;;;22.55;11.75;;;11.30;99.90;;;;;;5201741;28;20228;-74
2022/10/29 02:41:08;;;;;;;19.55;10.68;;;11.20;99.90;;;;;;5186560;28;20270;-75
2022/10/29 02:44:00;;;;;;;21.30;11.07;;;11.20;99.90;;;;;;5187611;28;20438;-74
2022/10/29 02:46:51;;;;;;;19.48;11.10;;;11.10;99.90;;;;;;5199653;28;20029;-73
2022/10/29 02:49:43;;;;;;;19.50;10.27;;;11.20;99.90;;;;;;5201017;28;20025;-74
2022/10/29 02:52:35;;;;;;;19.42;11.15;;;11.20;99.90;;;;;;5185631;28;20323;-74
2022/10/29 02:55:26;;;;;;;20.23;11.10;;;11.10;99.90;;;;;;5188508;28;20222;-74
2022/10/29 02:58:17;;;;;;;22.02;10.73;;;11.10;99.90;;;;;;5195684;28;20017;-74
2022/10/29 03:01:15;;;;;;;20.30;10.38;;;11.10;99.90;;;;;;5174429;28;20348;-74
2022/10/29 03:04:12;;;;;;;22.25;10.63;;;11.10;99.90;;;;;;5190183;28;20045;-73
2022/10/29 03:07:06;;;;;;;16.27;9.38;;;11.10;99.90;;;;;;5188439;28;20052;-73
2022/10/29 03:10:02;;;;;;;16.85;9.35;;;11.10;99.90;;;;;;5200858;28;20032;-72
2022/10/29 03:12:57;;;;;;;17.45;9.90;;;11.00;99.90;;;;;;5189180;28;20093;-74
2022/10/29 03:15:49;;;;;;;;;;;11.00;99.90;;;;;;5190158;28;20122;-73
2022/10/29 03:18:40;;;;;;;19.38;10.30;;;11.00;99.90;;;;;;5200895;28;20248;-74
2022/10/29 03:21:31;;;;;;;19.95;9.48;;;11.10;99.90;;;;;;5197815;28;20022;-73
2022/10/29 03:24:23;;;;;;;16.10;8.80;;;11.10;99.90;;;;;;5201211;28;20235;-74
2022/10/29 03:27:14;;;;;;;17.48;10.23;;;11.00;99.90;;;;;;5200330;28;20315;-73
2022/10/29 03:30:11;;;;;;;16.20;9.45;;;11.00;99.90;;;;;;5201809;28;20196;-73
2022/10/29 03:33:03;;;;;;;17.63;9.18;;;11.00;99.90;;;;;;5202036;28;20040;-75
2022/10/29 03:36:04;;;;;;;17.73;9.93;;;11.10;99.90;;;;;;5200810;28;20018;-74
2022/10/29 03:38:56;;;;;;;17.08;9.23;;;11.00;99.90;;;;;;5199192;28;20033;-72
2022/10/29 03:41:48;;;;;;;18.08;9.90;;;11.00;99.90;;;;;;5202135;28;20051;-72
2022/10/29 03:44:39;;;;;;;18.50;9.60;;;11.00;99.90;;;;;;5181710;28;20033;-73
2022/10/29 03:47:34;;;;;;;16.55;10.18;;;11.10;99.90;;;;;;5179592;28;20398;-73
2022/10/29 03:50:28;;;;;;;19.02;9.32;;;11.10;99.90;;;;;;5155066;28;20034;-75
2022/10/29 03:53:19;;;;;;;15.95;9.20;;;11.10;99.90;;;;;;5191469;28;20321;-75
2022/10/29 03:56:11;;;;;;;17.85;8.80;;;11.10;99.90;;;;;;5200363;28;20029;-76
2022/10/29 03:59:05;;;;;;;15.13;8.27;;;11.20;99.90;;;;;;5203836;28;20048;-75
2022/10/29 04:01:58;;;;;;;17.20;9.50;;;11.20;99.90;;;;;;5204344;28;20234;-74
2022/10/29 04:04:53;;;;;;;17.08;9.90;;;11.30;99.90;;;;;;5176880;28;20046;-73
2022/10/29 04:07:44;;;;;;;15.57;8.13;;;11.30;99.90;;;;;;5201185;28;20267;-74
2022/10/29 04:10:42;;;;;;;15.32;9.27;;;11.30;99.90;;;;;;5190822;28;20041;-75
2022/10/29 04:13:36;;;;;;;13.23;8.38;;;11.30;99.90;;;;;;5184971;28;20025;-73
2022/10/29 04:16:31;;;;;;;15.65;9.40;;;11.30;99.90;;;;;;5183143;28;20263;-74
2022/10/29 04:19:22;;;;;;;13.17;8.40;;;11.30;99.90;;;;;;5203289;28;20025;-73
2022/10/29 04:22:19;;;;;;;12.10;8.20;;;11.20;99.90;;;;;;5191477;28;20035;-72
2022/10/29 04:25:13;;;;;;;13.30;8.05;;;11.20;99.90;;;;;;5203910;28;20037;-73
2022/10/29 04:28:05;;;;;;;17.10;9.23;;;11.20;99.90;;;;;;5186806;28;20033;-73
2022/10/29 04:30:58;;;;;;;14.02;8.57;;;11.20;99.90;;;;;;5204527;28;20356;-74
2022/10/29 04:33:52;;;;;;;13.15;8.27;;;11.10;99.90;;;;;;5190435;28;20085;-73
2022/10/29 04:36:44;;;;;;;11.07;7.43;;;11.10;99.90;;;;;;5203282;28;20256;-74
2022/10/29 04:39:38;;;;;;;13.93;8.77;;;11.00;99.90;;;;;;5194265;28;20034;-73
2022/10/29 04:42:39;;;;;;;13.17;8.90;;;11.00;99.90;;;;;;5189294;28;20017;-74
2022/10/29 04:45:31;;;;;;;12.55;8.00;;;11.10;99.90;;;;;;5202981;28;20371;-76
2022/10/29 04:48:27;;;;;;;14.43;8.18;;;11.10;99.90;;;;;;5190970;28;20033;-75
2022/10/29 04:51:26;;;;;;;13.02;8.63;;;11.10;99.90;;;;;;5203056;28;20040;-73
2022/10/29 04:54:21;;;;;;;12.93;7.70;;;11.10;99.90;;;;;;5203315;28;20037;-74
2022/10/29 04:57:12;;;;;;;12.77;7.93;;;11.10;99.90;;;;;;5203482;28;20026;-72
2022/10/29 05:00:04;;;;;;;12.52;7.07;;;11.10;99.90;;;;;;5203871;28;20056;-73
2022/10/29 05:02:58;;;;;;;10.60;7.13;;;11.10;99.90;;;;;;5189597;28;20194;-76
2022/10/29 05:05:54;;;;;;;11.38;7.55;;;11.10;99.90;;;;;;5195022;28;20034;-73
2022/10/29 05:08:48;;;;;;;11.27;7.18;;;11.10;99.90;;;;;;5188911;28;20310;-74
2022/10/29 05:11:40;;;;;;;11.10;6.50;;;11.10;99.90;;;;;;5203155;28;20033;-75
2022/10/29 05:14:33;;;;;;;10.15;6.93;;;11.10;99.90;;;;;;5203621;28;20051;-75
2022/10/29 05:17:29;;;;;;;8.88;6.30;;;11.20;99.90;;;;;;5189723;28;20055;-74
2022/10/29 05:20:22;;;;;;;9.68;6.57;;;11.20;99.90;;;;;;5190696;28;20792;-74
2022/10/29 05:23:16;;;;;;;10.35;6.43;;;11.20;99.90;;;;;;5205137;28;20023;-74
2022/10/29 05:26:07;;;;;;;9.18;5.97;;;11.20;99.90;;;;;;5187940;28;20043;-75
2022/10/29 05:28:58;;;;;;;9.15;6.28;;;11.20;99.90;;;;;;5202884;28;20028;-75
2022/10/29 05:31:54;;;;;;;9.00;5.60;;;11.10;99.90;;;;;;5203127;28;20035;-75
2022/10/29 05:34:48;;;;;;;12.43;6.70;;;11.10;99.90;;;;;;5203447;28;20034;-74
2022/10/29 05:37:49;;;;;;;6.47;5.13;;;11.10;99.90;;;;;;5204298;28;20119;-74
2022/10/29 05:40:43;;;;;;;11.25;6.35;;;11.10;99.90;;;;;;5202697;28;20047;-74
2022/10/29 05:43:37;;;;;;;9.20;6.32;;;11.00;99.90;;;;;;5204186;28;20027;-73
2022/10/29 05:46:29;;;;;;;10.93;7.13;;;11.00;99.90;;;;;;5190063;28;20033;-73
2022/10/29 05:49:20;;;;;;;11.88;7.18;;;10.90;99.90;;;;;;5203607;28;20036;-74
2022/10/29 05:52:12;;;;;;;9.98;6.80;;;10.90;99.90;;;;;;5202908;28;20013;-74
2022/10/29 05:55:04;;;;;;;11.38;7.10;;;10.90;99.90;;;;;;5187456;28;20025;-72
2022/10/29 05:58:09;;;;;;;11.18;6.78;;;10.80;99.90;;;;;;5202031;28;20238;-73
2022/10/29 06:01:06;;;;;;;11.15;6.28;;;10.70;99.90;;;;;;5202284;28;20029;-73
2022/10/29 06:04:00;;;;;;;9.63;6.57;;;10.70;99.90;;;;;;5204179;28;20039;-74
2022/10/29 06:06:51;;;;;;;10.52;7.00;;;10.80;99.90;;;;;;5174798;28;20374;-74
2022/10/29 06:09:45;;;;;;;10.10;6.97;;;10.90;99.90;;;;;;5188677;28;20189;-74
2022/10/29 06:12:37;;;;;;;11.80;7.80;;;10.90;99.90;;;;;;5201811;28;20310;-73
2022/10/29 06:15:28;;;;;;;9.75;6.43;;;10.90;99.90;;;;;;5182174;28;20373;-74
2022/10/29 06:18:27;;;;;;;10.05;6.82;;;11.00;99.90;;;;;;5181200;28;20048;-73
2022/10/29 06:21:18;;;;;;;9.80;6.85;;;11.10;99.90;;;;;;5182201;28;20029;-73
2022/10/29 06:24:11;;;;;;;11.68;7.47;;;11.20;99.90;;;;;;5186942;28;20051;-74
2022/10/29 06:27:04;;;;;;;9.82;6.47;;;11.20;99.90;;;;;;5188177;28;20055;-73
2022/10/29 06:30:01;;;;;;;13.07;6.97;;;11.10;99.90;;;;;;5201475;28;20227;-73
2022/10/29 06:32:52;;;;;;;11.55;7.45;;;11.20;99.90;;;;;;5182251;28;20040;-74
2022/10/29 06:35:47;;;;;;;10.85;6.72;;;11.10;99.90;;;;;;5181213;28;20044;-73
2022/10/29 06:38:41;;;;;;;11.70;7.00;;;11.10;99.90;;;;;;5182637;28;20021;-74
2022/10/29 06:41:32;;;;;;;12.10;7.65;;;11.10;99.90;;;;;;5183534;28;20034;-73
2022/10/29 06:44:24;;;;;;;10.02;6.95;;;11.20;99.90;;;;;;5182982;28;20037;-75
2022/10/29 06:47:23;;;;;;;8.48;6.13;;;11.20;99.90;;;;;;5201454;28;20029;-75
2022/10/29 06:50:15;;;;;;;8.27;5.97;;;11.20;99.90;;;;;;5198131;28;20052;-74
2022/10/29 06:53:10;;;;;;;9.75;6.47;;;11.20;99.90;;;;;;5202553;28;20604;-74
2022/10/29 06:56:04;;;;;;;;;;;11.20;99.90;;;;;;5201587;28;20055;-74
2022/10/29 06:58:58;;;;;;;11.32;6.65;;;11.20;99.90;;;;;;5188348;28;19924;-72
2022/10/29 07:01:50;;;;;;;10.02;6.32;;;11.20;99.90;;;;;;5211464;28;20035;-72
2022/10/29 07:04:42;;;;;;;11.07;6.82;;;11.30;99.90;;;;;;5199352;28;20067;-73
2022/10/29 07:07:34;;;;;;;12.82;6.75;;;11.30;99.90;;;;;;5188469;28;20207;-73
2022/10/29 07:10:27;;;;;;;8.32;5.63;;;11.30;99.90;;;;;;5190613;28;20036;-74
2022/10/29 07:13:21;;;;;;;10.63;6.07;;;11.40;99.90;;;;;;5202285;28;20017;-73
2022/10/29 07:16:17;;;;;;;9.07;6.75;;;11.50;99.90;;;;;;5202146;28;20040;-75
2022/10/29 07:19:09;;;;;;;12.88;6.60;;;11.60;99.90;;;;;;5187796;28;20039;-74
2022/10/29 07:22:00;;;;;;;11.27;6.70;;;11.60;99.90;;;;;;5200255;28;20033;-74
2022/10/29 07:24:52;;;;;;;9.75;6.40;;;11.80;99.90;;;;;;5201148;28;20039;-73
2022/10/29 07:27:43;;;;;;;8.77;5.70;;;11.80;99.90;;;;;;5204119;28;20029;-74
2022/10/29 07:30:35;;;;;;;9.68;6.82;;;11.80;99.90;;;;;;5202643;28;20029;-74
2022/10/29 07:33:32;;;;;;;7.53;5.55;;;11.70;99.90;;;;;;5203782;28;20026;-74
2022/10/29 07:36:24;;;;;;;6.57;5.05;;;11.80;99.90;;;;;;5203678;28;20037;-74
2022/10/29 07:39:16;;;;;;;6.85;4.97;;;11.80;99.90;;;;;;5205680;28;20036;-75
2022/10/29 07:42:09;;;;;;;7.88;5.47;;;12.00;99.90;;;;;;5205096;28;20063;-75
2022/10/29 07:45:04;;;;;;;6.65;4.85;;;12.10;99.90;;;;;;5191298;28;20029;-75
2022/10/29 07:47:59;;;;;;;5.93;4.35;;;12.10;99.90;;;;;;5203939;28;20033;-75
2022/10/29 07:50:51;;;;;;;5.57;4.28;;;12.20;99.90;;;;;;5183039;28;20042;-75
2022/10/29 07:53:42;;;;;;;4.93;4.35;;;12.30;99.90;;;;;;5170163;28;20033;-74
2022/10/29 07:56:34;;;;;;;5.22;4.28;;;12.40;99.90;;;;;;5190930;28;20029;-75
2022/10/29 07:59:25;;;;;;;4.25;3.67;;;12.50;99.90;;;;;;5206622;28;20249;-74
2022/10/29 08:02:17;;;;;;;4.75;3.95;;;12.50;99.90;;;;;;5191324;28;20354;-74
2022/10/29 08:05:14;;;;;;;4.82;4.00;;;12.60;99.90;;;;;;5194171;28;20071;-75
2022/10/29 08:08:06;;;;;;;5.03;4.20;;;12.90;99.90;;;;;;5202726;28;20033;-75
2022/10/29 08:11:01;;;;;;;4.70;3.78;;;12.80;99.90;;;;;;5172791;28;20033;-75
2022/10/29 08:13:53;;;;;;;4.88;4.00;;;13.00;99.90;;;;;;5205750;28;20227;-74
2022/10/29 08:16:45;;;;;;;5.38;4.00;;;13.20;99.90;;;;;;5205770;28;20029;-75
2022/10/29 08:19:39;;;;;;;4.57;3.85;;;13.30;99.90;;;;;;5204879;28;20660;-75
2022/10/29 08:22:35;;;;;;;4.65;4.22;;;13.40;99.90;;;;;;5205037;28;20052;-75
2022/10/29 08:25:27;;;;;;;5.68;4.45;;;13.20;99.90;;;;;;5203381;28;20040;-75
2022/10/29 08:28:27;;;;;;;4.68;3.95;;;13.40;99.90;;;;;;5171971;28;20040;-74
2022/10/29 08:31:18;;;;;;;4.68;4.18;;;13.50;99.90;;;;;;5191153;28;20041;-75
2022/10/29 08:34:10;;;;;;;5.07;4.32;;;13.50;99.90;;;;;;5202620;28;20025;-75
2022/10/29 08:37:01;;;;;;;5.68;4.20;;;13.60;99.90;;;;;;5203949;28;20036;-74
2022/10/29 08:39:53;;;;;;;5.40;3.97;;;13.70;99.90;;;;;;5202619;28;20040;-74
2022/10/29 08:43:04;;;;;;;5.80;4.50;;;13.80;99.90;;;;;;5188322;28;20029;-74
2022/10/29 08:45:59;;;;;;;5.00;4.07;;;13.90;99.90;;;;;;5203327;28;20037;-74
2022/10/29 08:48:57;;;;;;;6.10;4.60;;;14.10;99.90;;;;;;5189506;28;20033;-75
2022/10/29 08:52:23;;;;;;;5.80;4.32;;;13.80;99.90;;;;;;5203891;28;20143;-75
2022/10/29 08:55:18;;;;;;;5.38;4.07;;;13.90;99.90;;;;;;5170369;28;20035;-75
2022/10/29 08:58:25;;;;;;;5.97;4.63;;;13.90;99.90;;;;;;5182710;28;20040;-76
2022/10/29 09:01:19;;;;;;;5.10;4.05;;;14.00;99.90;;;;;;5191006;28;20033;-76
2022/10/29 09:04:34;;;;;;;6.10;4.80;;;14.20;99.90;;;;;;5198031;28;20033;-74
2022/10/29 09:07:34;;;;;;;5.68;4.80;;;14.20;99.90;;;;;;5204978;28;20591;-76
2022/10/29 09:10:56;;;;;;;4.88;4.03;;;13.90;99.90;;;;;;5205328;28;20032;-75
2022/10/29 09:14:27;;;;;;;5.70;4.72;;;13.80;99.90;;;;;;5190916;28;20032;-76
2022/10/29 09:17:36;;;;;;;6.95;4.70;;;13.90;99.90;;;;;;5203716;28;20025;-76
2022/10/29 09:20:55;;;;;;;6.88;4.97;;;13.70;99.90;;;;;;5184195;28;20037;-76
2022/10/29 09:24:11;;;;;;;6.30;5.15;;;13.80;99.90;;;;;;5200284;28;20022;-75
2022/10/29 09:27:38;;;;;;;8.80;6.50;;;13.90;99.90;;;;;;5202369;28;20433;-76
2022/10/29 09:30:39;;;;;;;7.15;5.72;;;13.90;99.90;;;;;;5202131;28;20029;-76
2022/10/29 09:33:34;;;;;;;8.18;5.85;;;14.10;99.90;;;;;;5203335;28;20033;-76
2022/10/29 09:36:31;;;;;;;8.00;6.80;;;14.40;99.90;;;;;;5219445;28;20033;-76
2022/10/29 09:39:37;;;;;;;7.22;6.20;;;14.50;99.90;;;;;;5222774;28;20039;-76
2022/10/29 09:42:38;;;;;;;7.65;5.70;;;14.60;99.90;;;;;;5223186;28;20218;-74
2022/10/29 09:45:43;;;;;;;8.52;6.25;;;14.60;99.90;;;;;;5202235;28;20025;-74
2022/10/29 09:48:44;;;;;;;7.72;6.10;;;14.50;99.90;;;;;;5203659;28;20208;-74
2022/10/29 09:52:09;;;;;;;8.85;6.75;;;14.30;99.90;;;;;;5203162;28;20025;-74
2022/10/29 09:55:04;;;;;;;7.60;6.07;;;14.30;99.90;;;;;;5203310;28;20035;-73
2022/10/29 09:57:56;;;;;;;10.05;6.38;;;13.70;99.90;;;;;;5203159;28;20033;-74
2022/10/29 10:00:48;;;;;;;6.93;4.97;;;13.70;99.90;;;;;;5187925;28;20025;-74
2022/10/29 10:03:47;;;;;;;6.45;5.28;;;14.20;99.90;;;;;;5199614;28;20029;-74
2022/10/29 10:07:05;;;;;;;7.13;5.85;;;14.10;99.90;;;;;;5156154;28;20050;-74
2022/10/29 10:10:06;;;;;;;9.27;6.40;;;14.20;99.90;;;;;;5184018;28;20022;-75
2022/10/29 10:13:08;;;;;;;9.35;7.57;;;14.30;99.90;;;;;;5183923;28;20037;-74
2022/10/29 10:16:05;;;;;;;9.23;6.70;;;14.40;99.90;;;;;;5173401;28;20030;-76
2022/10/29 10:18:59;;;;;;;10.57;6.70;;;14.60;99.90;;;;;;5185413;28;20250;-75
2022/10/29 10:21:57;;;;;;;7.85;6.22;;;14.80;99.90;;;;;;5185324;28;20036;-75
2022/10/29 10:24:54;;;;;;;10.77;7.00;;;14.60;99.90;;;;;;5204186;28;20064;-75
2022/10/29 10:27:51;;;;;;;8.65;6.18;;;14.60;99.90;;;;;;5203332;28;20033;-75
2022/10/29 10:31:04;;;;;;;9.60;6.25;;;14.60;99.90;;;;;;5188749;28;20315;-75
2022/10/29 10:33:56;;;;;;;8.40;6.65;;;14.70;99.90;;;;;;5201689;28;20038;-75
2022/10/29 10:36:56;;;;;;;7.80;6.25;;;14.80;99.90;;;;;;5188942;28;20063;-75
2022/10/29 10:40:07;;;;;;;6.10;5.47;;;15.10;99.90;;;;;;5184468;28;20031;-74
2022/10/29 10:42:59;;;;;;;9.38;6.72;;;15.20;99.90;;;;;;5203123;28;20033;-74
2022/10/29 10:45:58;;;;;;;8.70;6.78;;;15.40;99.90;;;;;;5185331;28;20261;-74
2022/10/29 10:49:08;;;;;;;9.00;7.53;;;15.50;99.90;;;;;;5184110;28;20052;-75
2022/10/29 10:52:18;;;;;;;8.55;6.43;;;15.20;99.90;;;;;;5185170;28;20040;-77
2022/10/29 10:55:23;;;;;;;8.73;6.38;;;15.20;99.90;;;;;;5203000;28;20327;-75
2022/10/29 10:58:17;;;;;;;9.27;6.72;;;15.40;99.90;;;;;;5191479;28;20303;-76
2022/10/29 11:01:17;;;;;;;9.48;7.50;;;15.40;99.90;;;;;;5202963;28;20217;-76
2022/10/29 11:04:22;;;;;;;9.35;6.82;;;15.40;99.90;;;;;;5202042;28;20341;-74
2022/10/29 11:07:16;;;;;;;9.18;6.47;;;15.30;99.90;;;;;;5170711;28;20363;-76
2022/10/29 11:10:12;;;;;;;10.27;7.65;;;15.40;99.90;;;;;;5186434;28;20052;-75
2022/10/29 11:13:14;;;;;;;10.15;7.13;;;15.20;99.90;;;;;;5186688;28;20030;-75
2022/10/29 11:16:15;;;;;;;7.32;6.10;;;15.50;99.90;;;;;;5201845;28;20035;-75
2022/10/29 11:19:27;;;;;;;10.38;6.85;;;15.60;99.90;;;;;;5204512;28;20048;-75
2022/10/29 11:22:33;;;;;;;8.65;7.15;;;15.30;99.90;;;;;;5180695;28;20034;-76
2022/10/29 11:25:35;;;;;;;10.30;7.32;;;15.20;99.90;;;;;;5200315;28;20025;-76
2022/10/29 11:28:48;;;;;;;11.20;6.32;;;15.10;99.90;;;;;;5202599;28;20365;-76
2022/10/29 11:31:48;;;;;;;10.38;6.47;;;15.00;99.90;;;;;;5207922;28;20023;-76
2022/10/29 11:34:49;;;;;;;10.32;8.18;;;14.90;99.90;;;;;;5202502;28;20331;-76
2022/10/29 11:38:03;;;;;;;11.50;8.23;;;14.90;99.90;;;;;;5222560;28;20028;-76
2022/10/29 11:41:17;;;;;;;11.57;7.55;;;14.70;99.90;;;;;;5208317;28;20053;-76
2022/10/29 11:44:14;;;;;;;10.05;7.70;;;14.70;99.90;;;;;;5179705;28;20209;-75
2022/10/29 11:47:23;;;;;;;10.85;7.07;;;14.80;99.90;;;;;;5181323;28;20030;-75
2022/10/29 11:50:26;;;;;;;9.30;6.75;;;14.90;99.90;;;;;;5176110;28;20034;-76
2022/10/29 11:53:44;;;;;;;9.45;6.93;;;14.80;99.90;;;;;;5175828;28;20059;-75
2022/10/29 11:56:59;;;;;;;9.20;6.95;;;14.70;99.90;;;;;;5186123;28;20029;-75
2022/10/29 12:00:19;;;;;;;10.60;6.72;;;14.60;99.90;;;;;;5200996;28;20029;-76
2022/10/29 12:03:23;;;;;;;10.30;7.65;;;14.60;99.90;;;;;;5200892;28;20045;-76
2022/10/29 12:06:32;;;;;;;12.27;7.00;;;14.70;99.90;;;;;;5189252;28;20053;-76
2022/10/29 12:09:59;;;;;;;10.05;7.13;;;14.70;99.90;;;;;;5173305;28;20247;-75
2022/10/29 12:12:59;;;;;;;8.13;6.28;;;14.70;99.90;;;;;;5192862;28;20049;-74
2022/10/29 12:16:09;;;;;;;9.45;6.68;;;15.00;99.90;;;;;;5182486;28;20034;-73
2022/10/29 12:19:12;;;;;;;8.52;6.38;;;15.20;99.90;;;;;;5201919;28;20047;-73
2022/10/29 12:22:41;;;;;;;8.98;6.90;;;15.20;99.90;;;;;;5204904;28;20253;-76
2022/10/29 12:25:42;;;;;;;12.63;8.18;;;15.00;99.90;;;;;;5200899;28;20105;-75
2022/10/29 12:28:50;;;;;;;11.07;7.90;;;14.60;99.90;;;;;;5204641;28;20215;-75
2022/10/29 12:31:54;;;;;;;10.63;7.03;;;14.70;99.90;;;;;;5204968;28;20335;-76
2022/10/29 12:35:15;;;;;;;9.82;7.55;;;14.80;99.90;;;;;;5206403;28;20047;-75
2022/10/29 12:38:41;;;;;;;10.85;7.70;;;14.60;99.90;;;;;;5161902;28;20591;-75
2022/10/29 12:41:42;;;;;;;11.82;8.00;;;14.20;99.90;;;;;;5160550;28;20034;-75
2022/10/29 12:44:50;;;;;;;12.57;7.93;;;14.30;99.90;;;;;;5159931;28;20034;-75
2022/10/29 12:47:52;;;;;;;11.65;8.35;;;14.20;99.90;;;;;;5161367;28;20061;-76
2022/10/29 12:50:50;;;;;;;11.25;8.57;;;14.40;99.90;;;;;;5163735;28;20030;-75
2022/10/29 12:54:29;;;;;;;9.70;7.38;;;14.40;99.90;;;;;;5163346;28;20030;-76
2022/10/29 12:57:34;;;;;;;9.65;7.63;;;14.50;99.90;;;;;;5163715;28;20377;-76
2022/10/29 13:00:32;;;;;;;11.02;7.22;;;14.50;99.90;;;;;;5156676;28;20046;-76
2022/10/29 13:03:57;;;;;;;12.38;9.10;;;14.40;99.90;;;;;;5142092;28;20052;-76
2022/10/29 13:07:19;;;;;;;10.40;7.63;;;14.20;99.90;;;;;;5114773;28;20524;-76
2022/10/29 13:10:31;;;;;;;11.10;7.63;;;14.10;99.90;;;;;;5177332;28;20032;-76
2022/10/29 13:13:49;;;;;;;12.15;8.13;;;14.20;99.90;;;;;;5184175;28;20041;-76
2022/10/29 13:16:50;;;;;;;12.63;9.15;;;14.30;99.90;;;;;;5186762;28;20292;-75
2022/10/29 13:20:14;;;;;;;13.55;8.95;;;14.00;99.90;;;;;;5202943;28;20341;-76
2022/10/29 13:23:21;;;;;;;13.90;8.70;;;14.10;99.90;;;;;;5182127;28;20035;-74
2022/10/29 13:26:51;;;;;;;13.00;8.98;;;14.20;99.90;;;;;;5201974;28;20501;-76
2022/10/29 13:30:10;;;;;;;14.68;8.93;;;14.20;99.90;;;;;;5183327;28;20238;-75
2022/10/29 13:33:26;;;;;;;10.40;7.85;;;14.40;99.90;;;;;;5202532;28;20039;-74
2022/10/29 13:36:18;;;;;;;14.32;9.10;;;14.50;99.90;;;;;;5202159;28;20033;-74
2022/10/29 13:39:18;;;;;;;14.85;9.90;;;14.60;99.90;;;;;;5201546;28;20029;-76
2022/10/29 13:42:11;;;;;;;14.65;9.25;;;14.20;99.90;;;;;;5187282;28;20037;-75
2022/10/29 13:45:03;;;;;;;14.32;9.10;;;14.20;99.90;;;;;;5202164;28;20044;-75
2022/10/29 13:48:05;;;;;;;11.90;8.50;;;14.30;99.90;;;;;;5203008;28;20025;-75
2022/10/29 13:50:59;;;;;;;14.10;10.15;;;14.20;99.90;;;;;;5187371;28;20457;-75
2022/10/29 13:54:03;;;;;;;14.55;9.77;;;13.80;99.90;;;;;;5185160;28;20274;-76
2022/10/29 13:57:23;;;;;;;16.73;10.00;;;13.80;99.90;;;;;;5202455;28;20031;-75
2022/10/29 14:00:19;;;;;;;14.52;10.50;;;13.90;99.90;;;;;;5197122;28;20036;-75
2022/10/29 14:03:32;;;;;;;13.70;9.55;;;14.10;99.90;;;;;;5195147;28;20044;-75
2022/10/29 14:06:41;;;;;;;13.45;9.02;;;14.10;99.90;;;;;;5188908;28;20258;-75
2022/10/29 14:09:41;;;;;;;13.23;9.15;;;14.20;99.90;;;;;;5199120;28;20096;-74
2022/10/29 14:12:38;;;;;;;15.38;9.88;;;14.30;99.90;;;;;;5202323;28;20037;-75
2022/10/29 14:15:29;;;;;;;11.85;8.20;;;14.30;99.90;;;;;;5201587;28;20037;-75
2022/10/29 14:18:40;;;;;;;11.68;8.57;;;14.20;99.90;;;;;;5203082;28;20039;-76
2022/10/29 14:21:37;;;;;;;13.98;9.38;;;14.20;99.90;;;;;;5202130;28;20036;-76
2022/10/29 14:24:37;;;;;;;13.38;9.88;;;14.20;99.90;;;;;;5187932;28;20235;-75
2022/10/29 14:27:31;;;;;;;13.38;9.63;;;14.00;99.90;;;;;;5181640;28;20029;-75
2022/10/29 14:30:25;;;;;;;14.30;9.52;;;13.90;99.90;;;;;;5202695;28;20540;-75
2022/10/29 14:33:29;;;;;;;13.70;9.75;;;13.80;99.90;;;;;;5201636;28;20021;-75
2022/10/29 14:36:41;;;;;;;12.18;9.18;;;13.70;99.90;;;;;;5202830;28;20335;-74
2022/10/29 14:39:44;;;;;;;17.40;10.35;;;13.70;99.90;;;;;;5202309;28;20574;-74
2022/10/29 14:42:52;;;;;;;15.98;10.20;;;13.70;99.90;;;;;;5201988;28;20247;-76
2022/10/29 14:45:44;;;;;;;13.15;9.50;;;13.60;99.90;;;;;;5200499;28;20323;-76
2022/10/29 14:49:05;;;;;;;13.48;9.20;;;13.70;99.90;;;;;;5180708;28;20374;-76
2022/10/29 14:52:36;;;;;;;13.45;9.35;;;13.60;99.90;;;;;;5126111;28;20039;-76
2022/10/29 14:55:40;;;;;;;13.48;9.75;;;13.50;99.90;;;;;;5137812;28;20046;-76
2022/10/29 14:58:34;;;;;;;12.82;8.65;;;13.50;99.90;;;;;;5134541;28;20111;-76
2022/10/29 15:01:28;;;;;;;13.55;8.90;;;13.50;99.90;;;;;;5138366;28;20342;-74
2022/10/29 15:04:30;;;;;;;14.23;9.88;;;13.30;99.90;;;;;;5115544;28;20034;-75
2022/10/29 15:07:22;;;;;;;15.75;9.35;;;13.30;99.90;;;;;;5139241;28;20321;-75
2022/10/29 15:10:23;;;;;;;13.27;9.05;;;13.40;99.90;;;;;;5137986;28;20328;-73
2022/10/29 15:13:33;;;;;;;16.92;9.57;;;13.40;99.90;;;;;;5138951;28;20030;-74
2022/10/29 15:16:25;;;;;;;14.15;10.35;;;13.40;99.90;;;;;;5138749;28;20252;-76
2022/10/29 15:19:17;;;;;;;12.95;9.75;;;13.40;99.90;;;;;;5153705;28;20122;-76
2022/10/29 15:22:17;;;;;;;13.27;9.75;;;13.30;99.90;;;;;;5137958;28;20042;-75
2022/10/29 15:25:26;;;;;;;16.60;9.98;;;13.20;99.90;;;;;;5137745;28;20057;-74